Time;durP1;ratioP1;P1;durP2;ratioP2;P2;SDS_P1;SDS_P2;PMS_P1;PMS_P2;Temp;Humidity;BMP_temperature;BMP_pressure;BME280_temperature;BME280_humidity;BME280_pressure;Samples;Min_cycle;Max_cycle;Signal;HPM_P1;HPM_P2
2022/08/20 00:03:33;;;;;;;22.95;20.23;;;;;;;22.62;100.00;99777.98;2823392;80;21062;-86
2022/08/20 00:07:35;;;;;;;27.93;21.52;;;;;;;22.59;100.00;99783.81;2812939;82;21027;-86
2022/08/20 00:11:36;;;;;;;25.77;20.90;;;;;;;22.58;100.00;99779.98;2811930;82;21046;-85
2022/08/20 00:15:39;;;;;;;24.98;22.35;;;;;;;22.56;100.00;99776.12;2819088;82;21082;-85
2022/08/20 00:19:40;;;;;;;27.85;21.05;;;;;;;22.54;100.00;99780.94;2840974;82;21035;-86
2022/08/20 00:23:45;;;;;;;25.10;20.97;;;;;;;22.54;100.00;99788.55;2812033;82;21110;-86
2022/08/20 00:27:46;;;;;;;26.40;20.70;;;;;;;22.55;100.00;99794.80;2818842;82;21015;-86
2022/08/20 00:31:49;;;;;;;28.50;21.30;;;;;;;22.50;100.00;99800.88;2811801;82;21073;-86
2022/08/20 00:35:55;;;;;;;22.85;19.02;;;;;;;22.52;100.00;99793.88;2811763;82;21070;-86
2022/08/20 00:39:57;;;;;;;26.07;20.17;;;;;;;22.60;100.00;99799.06;2819077;82;21031;-86
2022/08/20 00:44:15;;;;;;;28.77;19.62;;;;;;;22.62;100.00;99805.09;2812059;82;20987;-85
2022/08/20 00:48:17;;;;;;;26.80;22.07;;;;;;;22.64;100.00;99819.25;2827468;80;21735;-86
2022/08/20 00:52:20;;;;;;;24.23;20.95;;;;;;;22.64;100.00;99814.34;2869630;80;20958;-85
2022/08/20 00:56:23;;;;;;;29.72;21.35;;;;;;;22.71;100.00;99821.08;2868066;80;21029;-85
2022/08/20 01:00:32;;;;;;;31.65;23.95;;;;;;;22.75;100.00;99819.08;2875910;80;20993;-86
2022/08/20 01:04:35;;;;;;;25.32;19.90;;;;;;;22.86;100.00;99821.62;2882833;80;21049;-86
2022/08/20 01:08:38;;;;;;;29.25;24.07;;;;;;;22.91;100.00;99816.37;2867291;80;21005;-86
2022/08/20 01:12:45;;;;;;;25.65;20.20;;;;;;;23.01;100.00;99817.23;2939010;80;21011;-85
2022/08/20 01:16:49;;;;;;;23.52;20.62;;;;;;;23.10;100.00;99814.58;2896102;80;21055;-85
2022/08/20 01:20:55;;;;;;;26.52;20.90;;;;;;;23.10;100.00;99810.51;2900365;80;21011;-85
2022/08/20 01:25:09;;;;;;;29.30;21.42;;;;;;;23.07;100.00;99807.39;2925004;80;21076;-85
2022/08/20 01:29:21;;;;;;;28.60;23.38;;;;;;;23.00;100.00;99798.48;2865721;80;20961;-85
2022/08/20 01:33:23;;;;;;;26.68;22.42;;;;;;;22.90;100.00;99802.50;2921903;80;21040;-86
2022/08/20 01:37:24;;;;;;;25.57;20.90;;;;;;;22.94;100.00;99807.78;2917480;80;21009;-85
2022/08/20 01:41:50;;;;;;;26.02;21.25;;;;;;;23.03;100.00;99812.97;2866009;80;21623;-86
2022/08/20 01:45:52;;;;;;;26.67;20.27;;;;;;;23.06;100.00;99815.23;2873417;80;21048;-86
2022/08/20 01:49:59;;;;;;;25.15;21.12;;;;;;;23.07;100.00;99814.17;2863756;79;21510;-85
2022/08/20 01:54:00;;;;;;;28.45;22.22;;;;;;;23.07;100.00;99809.56;2916797;79;21019;-86
2022/08/20 01:58:01;;;;;;;26.70;20.97;;;;;;;23.19;100.00;99814.30;2926288;79;20983;-85
2022/08/20 02:02:05;;;;;;;26.12;22.82;;;;;;;23.15;100.00;99809.01;2799629;82;21111;-85
2022/08/20 02:06:06;;;;;;;24.00;19.45;;;;;;;22.94;100.00;99809.14;2874494;80;21012;-85
2022/08/20 02:10:11;;;;;;;31.87;22.45;;;;;;;22.85;100.00;99796.07;2865493;79;20970;-85
2022/08/20 02:14:15;;;;;;;22.00;19.67;;;;;;;22.89;100.00;99794.06;2854560;79;21037;-85
2022/08/20 02:18:19;;;;;;;25.45;20.40;;;;;;;22.92;100.00;99777.89;2858797;79;21061;-86
2022/08/20 02:22:51;;;;;;;27.07;22.70;;;;;;;22.96;100.00;99779.92;2834371;80;21057;-86
2022/08/20 02:26:54;;;;;;;24.25;21.35;;;;;;;22.88;100.00;99766.64;2931663;80;21011;-86
2022/08/20 02:30:55;;;;;;;27.02;21.40;;;;;;;22.87;100.00;99762.27;2816747;81;20996;-85
2022/08/20 02:34:57;;;;;;;31.57;22.07;;;;;;;22.93;100.00;99754.61;2875742;80;21814;-86
2022/08/20 02:38:58;;;;;;;38.95;21.73;;;;;;;22.93;100.00;99747.83;2849801;82;21019;-85
2022/08/20 02:43:01;;;;;;;39.60;24.32;;;;;;;22.85;100.00;99745.40;2867816;80;21996;-85
2022/08/20 02:47:04;;;;;;;29.80;21.27;;;;;;;22.83;100.00;99752.92;2836158;82;21062;-86
2022/08/20 02:51:06;;;;;;;33.35;21.90;;;;;;;22.85;100.00;99749.47;2790071;83;21043;-85
2022/08/20 02:55:10;;;;;;;26.85;22.58;;;;;;;22.90;100.00;99753.70;2824511;82;21047;-85
2022/08/20 02:59:12;;;;;;;32.42;24.07;;;;;;;22.96;100.00;99760.94;2778558;82;21019;-85
2022/08/20 03:03:14;;;;;;;29.02;23.35;;;;;;;22.97;100.00;99753.11;2809805;83;21026;-85
2022/08/20 03:07:16;;;;;;;32.60;22.87;;;;;;;22.75;100.00;99735.56;2792481;82;21086;-85
2022/08/20 03:11:19;;;;;;;31.90;24.57;;;;;;;22.51;100.00;99736.16;2785892;82;21019;-85
2022/08/20 03:15:20;;;;;;;30.23;22.50;;;;;;;22.56;100.00;99721.11;2776801;82;20988;-85
2022/08/20 03:19:22;;;;;;;26.68;20.72;;;;;;;22.53;100.00;99722.37;2835418;82;21023;-85
2022/08/20 03:23:23;;;;;;;28.32;21.30;;;;;;;22.52;100.00;99713.94;2782580;83;21549;-85
2022/08/20 03:27:25;;;;;;;30.00;22.82;;;;;;;22.48;100.00;99715.42;2756135;83;21049;-85
2022/08/20 03:31:26;;;;;;;27.35;22.07;;;;;;;22.55;100.00;99720.27;2839547;82;21023;-86
2022/08/20 03:35:31;;;;;;;24.63;20.57;;;;;;;22.62;100.00;99712.09;2814408;81;20984;-85
2022/08/20 03:39:33;;;;;;;30.70;23.53;;;;;;;22.73;100.00;99711.39;2820249;83;21078;-85
2022/08/20 03:43:36;;;;;;;29.57;21.27;;;;;;;22.83;100.00;99702.77;2784297;82;21054;-85
2022/08/20 03:47:40;;;;;;;28.47;21.68;;;;;;;22.84;100.00;99708.49;2820412;83;20987;-86
2022/08/20 03:51:42;;;;;;;28.40;22.02;;;;;;;22.86;100.00;99714.52;2800598;81;21493;-85
2022/08/20 03:55:47;;;;;;;29.05;20.92;;;;;;;22.95;100.00;99710.47;2813459;82;21075;-85
2022/08/20 03:59:48;;;;;;;29.18;19.48;;;;;;;23.01;100.00;99718.79;2761726;84;21042;-85
2022/08/20 04:03:50;;;;;;;26.45;19.85;;;;;;;22.99;100.00;99735.78;2793523;83;21023;-85
2022/08/20 04:07:51;;;;;;;24.70;18.55;;;;;;;23.01;100.00;99732.35;2785551;83;21022;-86
2022/08/20 04:11:55;;;;;;;24.18;18.23;;;;;;;23.07;100.00;99732.81;2762113;84;21340;-85
2022/08/20 04:15:56;;;;;;;26.97;17.75;;;;;;;23.15;100.00;99731.16;2792333;84;21070;-85
2022/08/20 04:19:58;;;;;;;28.65;20.12;;;;;;;23.25;100.00;99730.17;2828839;81;21046;-85
2022/08/20 04:24:03;;;;;;;22.10;18.07;;;;;;;23.34;100.00;99732.07;2845368;83;21019;-84
2022/08/20 04:28:07;;;;;;;20.88;17.40;;;;;;;23.29;100.00;99726.50;2839787;81;21087;-85
2022/08/20 04:32:08;;;;;;;22.70;18.80;;;;;;;23.14;100.00;99732.21;2784162;83;21605;-85
2022/08/20 04:36:09;;;;;;;48.17;22.82;;;;;;;23.11;100.00;99736.73;2826935;81;21066;-86
2022/08/20 04:44:38;;;;;;;33.45;20.27;;;;;;;23.11;100.00;99756.56;2826035;81;21039;-85
2022/08/20 04:48:40;;;;;;;23.10;20.02;;;;;;;23.16;100.00;99762.66;2834130;81;21038;-85
2022/08/20 04:52:41;;;;;;;32.48;20.32;;;;;;;23.23;100.00;99779.72;2813274;80;21046;-85
2022/08/20 04:56:43;;;;;;;37.08;22.73;;;;;;;23.20;100.00;99782.05;2811479;83;20999;-85
2022/08/20 05:00:48;;;;;;;21.35;17.25;;;;;;;23.29;100.00;99781.27;2840172;83;21024;-85
2022/08/20 05:04:49;;;;;;;25.57;17.73;;;;;;;23.20;100.00;99782.89;2849598;82;21506;-85
2022/08/20 05:08:52;;;;;;;24.12;20.27;;;;;;;23.17;100.00;99788.73;2814277;83;21026;-85
2022/08/20 05:12:54;;;;;;;28.60;20.92;;;;;;;23.13;100.00;99788.06;2840018;79;21015;-85
2022/08/20 05:16:56;;;;;;;27.30;20.82;;;;;;;22.97;100.00;99799.75;2810661;83;21459;-85
2022/08/20 05:21:04;;;;;;;33.13;21.80;;;;;;;22.94;100.00;99807.78;2867859;83;21030;-85
2022/08/20 05:25:03;;;;;;;40.15;25.05;;;;;;;22.93;100.00;99810.73;2833528;83;21074;-85
2022/08/20 05:29:05;;;;;;;24.27;20.62;;;;;;;23.04;100.00;99810.55;2854444;83;21336;-85
2022/08/20 05:33:09;;;;;;;29.25;21.68;;;;;;;23.11;100.00;99814.03;2820997;83;21019;-85
2022/08/20 05:37:10;;;;;;;29.92;22.85;;;;;;;23.17;100.00;99819.92;2855727;83;21061;-86
2022/08/20 05:41:12;;;;;;;27.50;23.50;;;;;;;23.09;100.00;99828.34;2781426;83;21066;-86
2022/08/20 05:45:16;;;;;;;29.82;23.10;;;;;;;23.12;100.00;99831.97;2731223;83;21054;-85
2022/08/20 05:49:20;;;;;;;27.95;21.48;;;;;;;23.14;100.00;99827.16;2834671;83;21704;-85
2022/08/20 05:53:24;;;;;;;30.68;24.32;;;;;;;23.17;100.00;99822.64;2770069;83;21035;-85
2022/08/20 05:57:25;;;;;;;34.63;24.45;;;;;;;23.25;100.00;99816.98;2773733;83;20983;-85
2022/08/20 06:01:27;;;;;;;30.55;25.25;;;;;;;23.29;100.00;99824.17;2773670;83;20995;-85
2022/08/20 06:05:28;;;;;;;28.30;22.98;;;;;;;23.38;100.00;99816.55;2769787;83;21059;-86
2022/08/20 06:09:31;;;;;;;30.70;22.42;;;;;;;23.42;100.00;99812.36;2775470;83;21078;-85
2022/08/20 06:13:33;;;;;;;33.23;22.22;;;;;;;23.46;100.00;99807.30;2773627;83;21027;-85
2022/08/20 06:17:34;;;;;;;33.00;26.05;;;;;;;23.49;100.00;99792.77;2769399;83;21023;-85
2022/08/20 06:21:36;;;;;;;30.32;22.42;;;;;;;23.62;100.00;99780.95;2775139;83;21090;-85
2022/08/20 06:25:37;;;;;;;33.80;24.95;;;;;;;23.85;100.00;99775.91;2772313;83;21054;-85
2022/08/20 06:29:39;;;;;;;32.67;23.15;;;;;;;24.09;100.00;99768.23;2770025;83;21111;-85
2022/08/20 06:33:41;;;;;;;32.80;22.70;;;;;;;24.10;100.00;99771.79;2777105;83;21107;-86
2022/08/20 06:37:42;;;;;;;35.63;25.90;;;;;;;24.12;100.00;99771.55;2769011;83;21499;-86
2022/08/20 06:41:44;;;;;;;32.13;21.23;;;;;;;24.12;100.00;99781.05;2770673;83;21079;-85
2022/08/20 06:45:45;;;;;;;32.95;25.43;;;;;;;24.05;100.00;99784.69;2777884;83;21442;-86
2022/08/20 06:49:48;;;;;;;38.13;25.30;;;;;;;24.01;100.00;99796.20;2770259;83;21094;-86
2022/08/20 06:53:49;;;;;;;40.30;25.30;;;;;;;23.99;100.00;99799.67;2769847;83;21035;-86
2022/08/20 06:58:00;;;;;;;36.90;25.35;;;;;;;23.96;100.00;99794.16;2777922;83;21083;-86
2022/08/20 07:02:02;;;;;;;28.73;23.77;;;;;;;23.98;100.00;99798.86;2770042;83;21059;-86
2022/08/20 07:06:04;;;;;;;33.42;24.72;;;;;;;24.05;100.00;99798.27;2776814;83;21103;-86
2022/08/20 07:10:11;;;;;;;33.50;23.98;;;;;;;24.07;100.00;99798.03;2820160;82;21069;-85
2022/08/20 07:14:13;;;;;;;60.52;28.65;;;;;;;24.13;100.00;99793.58;2777785;85;21073;-86
2022/08/20 07:18:14;;;;;;;37.95;26.75;;;;;;;24.16;100.00;99795.31;2754958;84;21019;-85
2022/08/20 07:22:16;;;;;;;34.73;27.05;;;;;;;24.24;100.00;99806.41;2836327;80;20987;-86
2022/08/20 07:26:18;;;;;;;36.90;26.45;;;;;;;24.38;100.00;99807.06;2785552;83;21014;-86
2022/08/20 07:34:44;;;;;;;35.03;25.30;;;;;;;24.67;99.46;99811.39;2828800;81;21487;-85
2022/08/20 07:38:46;;;;;;;41.28;28.92;;;;;;;25.03;99.49;99803.35;2826227;81;21050;-86
2022/08/20 07:42:49;;;;;;;35.00;26.57;;;;;;;25.40;98.44;99800.44;2834855;81;21018;-86
2022/08/20 07:46:50;;;;;;;40.58;28.87;;;;;;;25.68;96.06;99791.29;2826296;81;21034;-86
2022/08/20 07:50:54;;;;;;;33.67;26.57;;;;;;;25.78;93.23;99789.62;2826300;81;21030;-86
2022/08/20 07:54:56;;;;;;;33.07;25.00;;;;;;;25.67;94.81;99779.55;2834895;81;21057;-86
2022/08/20 07:59:00;;;;;;;35.60;25.97;;;;;;;25.61;93.69;99777.80;2775821;81;22181;-86
2022/08/20 08:03:02;;;;;;;35.68;26.77;;;;;;;25.41;94.73;99780.31;2826474;81;21097;-86
2022/08/20 08:07:05;;;;;;;35.88;24.80;;;;;;;25.24;96.38;99795.98;2834435;81;21158;-86
2022/08/20 08:11:07;;;;;;;30.50;24.20;;;;;;;25.26;96.97;99790.31;2778728;83;21073;-86
2022/08/20 08:15:14;;;;;;;39.35;27.52;;;;;;;25.28;97.02;99790.06;2777606;84;21355;-86
2022/08/20 08:19:18;;;;;;;33.55;25.75;;;;;;;25.43;96.06;99786.35;2806482;83;21078;-86
2022/08/20 08:23:21;;;;;;;29.25;23.50;;;;;;;25.44;95.32;99795.33;2827015;81;21062;-86
2022/08/20 08:27:23;;;;;;;33.55;24.32;;;;;;;25.62;96.12;99800.69;2828627;81;21003;-86
2022/08/20 08:31:25;;;;;;;105.75;36.98;;;;;;;25.81;93.71;99794.58;2832263;81;21018;-86
2022/08/20 08:35:26;;;;;;;37.83;26.02;;;;;;;26.00;92.53;99790.34;2829116;81;21054;-86
2022/08/20 08:39:29;;;;;;;33.48;26.45;;;;;;;26.31;91.52;99789.61;2830995;81;21026;-86
2022/08/20 08:43:31;;;;;;;36.38;27.75;;;;;;;26.62;91.08;99794.30;2802377;81;21611;-86
2022/08/20 08:47:36;;;;;;;34.15;25.35;;;;;;;26.95;89.80;99797.34;2786119;83;21521;-86
2022/08/20 08:51:40;;;;;;;;;;;;;;;27.16;87.31;99799.05;2836158;81;21152;-86
2022/08/20 08:55:42;;;;;;;32.55;22.20;;;;;;;27.08;84.74;99805.74;2803848;81;20158;-86
2022/08/20 08:59:48;;;;;;;31.17;26.02;;;;;;;27.21;84.89;99797.23;2827363;81;21082;-86
2022/08/20 09:03:50;;;;;;;31.17;23.05;;;;;;;27.21;86.57;99795.87;2834450;81;21046;-87
2022/08/20 09:07:52;;;;;;;31.73;24.55;;;;;;;27.27;85.37;99801.41;2827056;81;21043;-86
2022/08/20 09:11:59;;;;;;;25.92;22.48;;;;;;;27.32;85.86;99796.05;2786196;83;21597;-87
2022/08/20 09:16:01;;;;;;;31.10;23.98;;;;;;;27.51;85.88;99794.73;2839682;81;21085;-86
2022/08/20 09:20:04;;;;;;;29.98;22.45;;;;;;;27.77;84.63;99786.04;2830274;81;21023;-86
2022/08/20 09:24:06;;;;;;;25.75;20.95;;;;;;;27.73;80.36;99791.20;2827715;81;21038;-86
2022/08/20 09:28:07;;;;;;;25.10;21.52;;;;;;;27.82;82.33;99783.40;2810606;81;21096;-86
2022/08/20 09:32:16;;;;;;;25.65;21.70;;;;;;;27.67;81.87;99785.36;2827608;81;21010;-87
2022/08/20 09:36:18;;;;;;;26.02;21.75;;;;;;;27.70;80.95;99789.51;2827464;81;21046;-87
2022/08/20 09:40:20;;;;;;;25.08;21.02;;;;;;;28.09;81.73;99782.08;2848203;81;21011;-86
2022/08/20 09:44:21;;;;;;;27.82;21.85;;;;;;;28.31;79.60;99774.98;2786154;83;21002;-86
2022/08/20 09:48:23;;;;;;;27.85;21.73;;;;;;;28.75;74.97;99785.00;2835156;81;21038;-87
2022/08/20 09:52:29;;;;;;;25.65;21.42;;;;;;;28.75;74.97;99785.00;2821465;81;21035;-87
2022/08/20 09:56:34;;;;;;;27.15;20.77;;;;;;;29.02;75.14;99791.00;2786465;84;21012;-87
2022/08/20 10:00:36;;;;;;;24.87;20.85;;;;;;;29.03;74.11;99796.75;2826181;81;21039;-87
2022/08/20 10:04:37;;;;;;;28.35;20.57;;;;;;;28.83;76.30;99796.05;2880343;80;21023;-86
2022/08/20 10:08:38;;;;;;;44.98;24.52;;;;;;;28.71;75.39;99797.55;2946172;80;21006;-86
2022/08/20 10:12:40;;;;;;;27.67;20.10;;;;;;;28.70;76.08;99798.64;2892505;79;21132;-87
2022/08/20 10:16:42;;;;;;;28.98;21.85;;;;;;;28.78;75.12;99797.59;2908557;79;20993;-87
2022/08/20 10:20:43;;;;;;;28.05;20.85;;;;;;;28.79;76.61;99792.97;2857719;80;20970;-87
2022/08/20 10:24:44;;;;;;;26.42;21.37;;;;;;;28.79;75.95;99777.91;2927955;80;21010;-86
2022/08/20 10:28:46;;;;;;;26.35;20.88;;;;;;;28.97;75.33;99786.86;2945374;80;21035;-87
2022/08/20 10:32:48;;;;;;;27.95;20.55;;;;;;;29.04;73.57;99775.97;2842122;82;21011;-87
2022/08/20 10:36:49;;;;;;;23.95;20.60;;;;;;;29.11;74.75;99774.92;2865825;79;21007;-87
2022/08/20 10:40:51;;;;;;;22.48;17.37;;;;;;;29.08;74.24;99772.15;2861460;81;21055;-87
2022/08/20 10:44:52;;;;;;;20.02;17.92;;;;;;;29.11;73.56;99773.55;2807104;81;21046;-87
2022/08/20 10:48:54;;;;;;;19.77;15.90;;;;;;;29.22;74.01;99784.31;2828055;80;21037;-87
2022/08/20 10:52:55;;;;;;;20.00;17.40;;;;;;;29.05;74.71;99785.00;2872363;78;21528;-87
2022/08/20 10:57:02;;;;;;;29.50;20.97;;;;;;;28.74;75.67;99788.82;2879564;78;21017;-87
2022/08/20 11:01:04;;;;;;;21.82;16.30;;;;;;;28.61;75.50;99788.14;2889680;80;20993;-86
2022/08/20 11:05:06;;;;;;;18.92;16.82;;;;;;;28.59;76.07;99775.27;2912217;80;21026;-87
2022/08/20 11:09:08;;;;;;;22.37;17.70;;;;;;;28.69;75.84;99785.48;2905134;81;21011;-87
2022/08/20 11:13:11;;;;;;;23.55;16.35;;;;;;;29.09;74.35;99782.05;2836355;81;21602;-87
2022/08/20 11:17:25;;;;;;;17.90;15.98;;;;;;;29.09;74.35;99782.05;2856080;81;21019;-88
2022/08/20 11:21:26;;;;;;;20.43;17.40;;;;;;;29.39;72.28;99766.90;2846405;80;21035;-86
2022/08/20 11:25:28;;;;;;;18.75;16.93;;;;;;;29.68;71.92;99764.35;2827511;81;21026;-87
2022/08/20 11:29:30;;;;;;;22.00;15.63;;;;;;;29.69;72.46;99765.47;2825600;81;21008;-87
2022/08/20 11:33:31;;;;;;;20.82;16.40;;;;;;;29.71;71.15;99761.91;2900250;80;21023;-87
2022/08/20 11:37:33;;;;;;;21.57;15.10;;;;;;;29.71;70.98;99752.32;2840160;81;21063;-87
2022/08/20 11:41:35;;;;;;;14.85;13.40;;;;;;;29.92;69.96;99751.04;2819990;83;21030;-86
2022/08/20 11:45:36;;;;;;;20.10;16.25;;;;;;;30.16;68.89;99750.59;2825428;81;20976;-87
2022/08/20 11:49:38;;;;;;;19.90;14.98;;;;;;;30.37;68.25;99745.99;2829386;81;21007;-87
2022/08/20 11:53:39;;;;;;;18.67;16.07;;;;;;;30.63;67.78;99744.11;2820315;81;21034;-87
2022/08/20 11:57:45;;;;;;;19.73;15.85;;;;;;;30.77;66.18;99749.06;2786034;82;21059;-87
2022/08/20 12:01:46;;;;;;;20.20;16.75;;;;;;;30.82;65.63;99740.02;2876417;81;21079;-87
2022/08/20 12:05:48;;;;;;;22.58;16.37;;;;;;;31.01;66.70;99736.98;2860617;83;21664;-87
2022/08/20 12:09:49;;;;;;;20.95;16.02;;;;;;;31.30;65.58;99739.72;2841790;83;21080;-87
2022/08/20 12:13:51;;;;;;;19.17;16.40;;;;;;;31.33;63.43;99730.92;2824644;81;21483;-86
2022/08/20 12:17:54;;;;;;;23.05;16.17;;;;;;;31.37;64.04;99729.82;2857244;81;20995;-87
2022/08/20 12:21:55;;;;;;;18.35;16.32;;;;;;;31.41;63.68;99724.84;2841884;80;21031;-87
2022/08/20 12:26:02;;;;;;;17.98;15.45;;;;;;;31.21;64.02;99722.98;2850045;81;21570;-87
2022/08/20 12:30:08;;;;;;;18.55;15.05;;;;;;;31.12;65.12;99715.83;2863308;80;21105;-87
2022/08/20 12:34:09;;;;;;;17.90;15.68;;;;;;;30.92;65.99;99711.17;2874639;81;21557;-87
2022/08/20 12:38:11;;;;;;;19.77;15.75;;;;;;;30.77;67.04;99709.27;2853916;81;20996;-87
2022/08/20 12:42:14;;;;;;;19.40;17.17;;;;;;;30.81;70.93;99711.73;2898044;80;21012;-87
2022/08/20 12:46:16;;;;;;;20.77;18.23;;;;;;;31.01;66.40;99717.77;2838978;83;21039;-87
2022/08/20 12:50:22;;;;;;;20.30;16.50;;;;;;;31.02;64.85;99713.08;2732191;83;20987;-88
2022/08/20 12:54:23;;;;;;;27.15;18.17;;;;;;;30.73;64.62;99706.80;2791723;82;21068;-87
2022/08/20 12:58:24;;;;;;;18.70;15.58;;;;;;;30.48;65.35;99705.67;2865180;80;21006;-87
2022/08/20 13:02:27;;;;;;;22.48;15.58;;;;;;;30.21;66.53;99705.34;2932619;80;20951;-87
2022/08/20 13:06:28;;;;;;;17.92;15.93;;;;;;;30.17;66.33;99697.39;2826741;81;21027;-86
2022/08/20 13:10:34;;;;;;;23.00;17.42;;;;;;;29.97;67.12;99694.84;2895036;79;21006;-87
2022/08/20 13:14:37;;;;;;;20.08;16.17;;;;;;;29.82;68.65;99690.69;2851670;80;21047;-87
2022/08/20 13:18:39;;;;;;;20.88;18.70;;;;;;;29.53;69.21;99695.24;2926446;80;21069;-87
2022/08/20 13:22:41;;;;;;;21.40;17.30;;;;;;;29.40;69.80;99691.86;2859856;80;21532;-87
2022/08/20 13:26:43;;;;;;;24.85;17.98;;;;;;;29.43;69.96;99673.55;2826921;82;21105;-87
2022/08/20 13:30:44;;;;;;;18.70;16.12;;;;;;;29.48;71.24;99672.22;2864464;79;21694;-87
2022/08/20 13:34:46;;;;;;;19.98;16.97;;;;;;;29.61;69.81;99675.54;2900489;79;21013;-87
2022/08/20 13:38:47;;;;;;;24.95;18.45;;;;;;;29.72;69.30;99677.23;2873245;82;21022;-87
2022/08/20 13:42:49;;;;;;;21.45;16.60;;;;;;;29.93;68.57;99688.27;2877903;79;21023;-87
2022/08/20 13:46:52;;;;;;;22.60;18.37;;;;;;;30.08;68.19;99692.17;2764556;80;21013;-87
2022/08/20 13:50:54;;;;;;;20.10;16.32;;;;;;;30.19;67.50;99700.16;2861920;80;21576;-87
2022/08/20 13:54:55;;;;;;;28.90;17.62;;;;;;;30.28;66.57;99699.07;2945278;78;21002;-87
2022/08/20 13:58:57;;;;;;;22.20;16.93;;;;;;;30.44;67.07;99692.20;2826431;78;21008;-87
2022/08/20 14:03:02;;;;;;;16.93;11.43;;;;;;;30.34;67.40;99702.09;2888726;80;20971;-87
2022/08/20 14:07:17;;;;;;;16.40;7.90;;;;;;;29.88;70.79;99719.22;2895884;80;21015;-87
2022/08/20 14:11:18;;;;;;;8.98;7.78;;;;;;;28.03;76.97;99691.53;2826066;81;21034;-87
2022/08/20 14:15:20;;;;;;;13.43;10.03;;;;;;;26.42;85.43;99725.20;2825592;80;21023;-87
2022/08/20 14:19:21;;;;;;;25.55;11.75;;;;;;;25.64;90.11;99721.48;2833655;81;21054;-86
2022/08/20 14:23:23;;;;;;;22.35;13.58;;;;;;;24.74;100.00;99754.16;2799293;81;21098;-86
2022/08/20 14:27:24;;;;;;;13.45;8.48;;;;;;;23.48;100.00;99810.62;2799905;81;21023;-85
2022/08/20 14:31:25;;;;;;;21.07;11.25;;;;;;;22.99;100.00;99821.20;2842918;81;21038;-85
2022/08/20 14:35:27;;;;;;;17.32;9.48;;;;;;;22.61;100.00;99825.63;2805387;83;21646;-85
2022/08/20 14:39:28;;;;;;;11.68;6.80;;;;;;;22.31;100.00;99830.23;2887995;81;20996;-85
2022/08/20 14:43:29;;;;;;;10.48;7.55;;;;;;;22.10;100.00;99838.41;2867574;81;21070;-85
2022/08/20 14:47:36;;;;;;;11.65;8.83;;;;;;;22.09;100.00;99828.63;2776494;81;21309;-85
2022/08/20 14:51:38;;;;;;;15.63;10.55;;;;;;;22.09;100.00;99825.06;2790149;83;21478;-85
2022/08/20 14:55:39;;;;;;;18.45;12.07;;;;;;;22.08;100.00;99812.06;2828304;82;21011;-86
2022/08/20 14:59:41;;;;;;;17.52;11.35;;;;;;;21.99;100.00;99821.45;2844379;82;21045;-86
2022/08/20 15:03:43;;;;;;;24.70;12.68;;;;;;;21.93;100.00;99819.60;2892311;81;21137;-86
2022/08/20 15:07:48;;;;;;;15.18;12.07;;;;;;;21.99;100.00;99813.87;2832008;80;21062;-85
2022/08/20 15:11:49;;;;;;;20.77;13.55;;;;;;;21.91;100.00;99828.47;2810013;83;21087;-85
2022/08/20 15:15:52;;;;;;;18.07;15.65;;;;;;;22.03;100.00;99848.44;2814395;81;21046;-86
2022/08/20 15:19:55;;;;;;;20.48;16.73;;;;;;;22.13;100.00;99860.69;2821256;82;21090;-86
2022/08/20 15:23:56;;;;;;;25.23;15.93;;;;;;;22.31;100.00;99877.64;2828244;83;21585;-86
2022/08/20 15:27:59;;;;;;;22.98;16.12;;;;;;;22.37;100.00;99877.59;2835052;80;21050;-86
2022/08/20 15:32:01;;;;;;;22.50;17.57;;;;;;;22.52;100.00;99872.47;2786931;83;21031;-86
2022/08/20 15:36:06;;;;;;;24.80;16.93;;;;;;;22.50;100.00;99862.37;2794435;83;21050;-86
2022/08/20 15:40:10;;;;;;;20.88;14.70;;;;;;;22.62;100.00;99862.01;2842164;81;21042;-86
2022/08/20 15:44:12;;;;;;;24.90;18.47;;;;;;;22.72;100.00;99862.05;2824277;82;21041;-85
2022/08/20 15:48:18;;;;;;;21.17;16.12;;;;;;;22.81;100.00;99858.05;2760372;84;31518;-86
2022/08/20 15:52:20;;;;;;;22.60;16.32;;;;;;;22.90;100.00;99870.84;2821336;81;21733;-86
2022/08/20 15:56:45;;;;;;;19.90;14.53;;;;;;;22.95;100.00;99866.94;2774958;83;21055;-86
2022/08/20 16:00:54;;;;;;;16.07;14.37;;;;;;;22.93;100.00;99867.14;2780422;83;21411;-86
2022/08/20 16:05:10;;;;;;;13.62;9.68;;;;;;;22.97;100.00;99867.01;2800220;83;21083;-85
2022/08/20 16:09:53;;;;;;;14.20;10.08;;;;;;;22.84;100.00;99863.04;2775981;83;21025;-86
2022/08/20 16:14:09;;;;;;;11.93;9.43;;;;;;;22.80;100.00;99868.05;2801469;83;21071;-86
2022/08/20 16:18:25;;;;;;;12.25;10.40;;;;;;;22.78;100.00;99872.02;2809674;83;21140;-86
2022/08/20 16:22:30;;;;;;;13.80;11.55;;;;;;;22.74;100.00;99880.28;2789129;83;21071;-87
2022/08/20 16:27:00;;;;;;;12.20;11.05;;;;;;;22.73;100.00;99878.63;2728906;83;21086;-86
2022/08/20 16:31:07;;;;;;;17.45;12.03;;;;;;;22.61;100.00;99868.48;2785958;83;21051;-87
2022/08/20 16:35:34;;;;;;;17.23;13.65;;;;;;;22.61;100.00;99865.77;2772147;82;21055;-85
2022/08/20 16:39:56;;;;;;;13.00;10.03;;;;;;;22.63;100.00;99876.38;2718696;86;21594;-86
2022/08/20 16:44:12;;;;;;;14.07;12.58;;;;;;;22.68;100.00;99876.55;2755615;85;21413;-85
2022/08/20 16:48:14;;;;;;;13.85;12.55;;;;;;;22.68;100.00;99871.98;2762310;84;21077;-87
2022/08/20 16:52:15;;;;;;;12.98;11.20;;;;;;;22.75;100.00;99871.10;2779241;84;21075;-86
2022/08/20 16:56:33;;;;;;;11.38;10.00;;;;;;;22.77;100.00;99884.77;2822769;83;21019;-86
2022/08/20 17:00:35;;;;;;;12.65;9.48;;;;;;;22.78;100.00;99882.36;2806980;83;21031;-86
2022/08/20 17:04:47;;;;;;;14.65;10.95;;;;;;;22.83;100.00;99892.56;2822684;83;21047;-87
2022/08/20 17:08:50;;;;;;;11.43;10.25;;;;;;;22.93;100.00;99901.04;2834939;82;20960;-86
2022/08/20 17:12:59;;;;;;;9.78;8.78;;;;;;;22.80;100.00;99901.13;2854286;81;21080;-85
2022/08/20 17:17:01;;;;;;;9.73;8.70;;;;;;;22.79;100.00;99914.34;2893082;80;21026;-86
2022/08/20 17:21:23;;;;;;;11.57;8.98;;;;;;;22.78;100.00;99911.33;2846917;81;21052;-87
2022/08/20 17:25:36;;;;;;;12.40;11.20;;;;;;;22.75;100.00;99907.70;2893084;80;21011;-86
2022/08/20 17:29:55;;;;;;;9.40;8.50;;;;;;;22.77;100.00;99912.38;2893448;80;21019;-86
2022/08/20 17:33:57;;;;;;;11.25;8.40;;;;;;;22.72;100.00;99927.11;2876675;79;20987;-87
2022/08/20 17:38:00;;;;;;;9.85;8.03;;;;;;;22.66;100.00;99935.58;2880745;79;21003;-87
2022/08/20 17:42:10;;;;;;;8.65;7.75;;;;;;;22.50;100.00;99945.87;2849958;80;20955;-86
2022/08/20 17:46:15;;;;;;;9.35;8.43;;;;;;;22.46;100.00;99965.44;2863418;78;21080;-86
2022/08/20 17:50:22;;;;;;;9.38;6.90;;;;;;;22.46;100.00;99959.48;2888486;79;20984;-86
2022/08/20 17:54:33;;;;;;;6.30;5.58;;;;;;;22.40;100.00;99971.17;2895401;79;21031;-86
2022/08/20 17:58:47;;;;;;;7.85;6.90;;;;;;;22.39;100.00;99973.03;2926541;78;20978;-86
2022/08/20 18:02:53;;;;;;;11.83;5.95;;;;;;;22.45;100.00;99972.72;2914509;78;20996;-86
2022/08/20 18:07:30;;;;;;;10.65;7.95;;;;;;;22.38;100.00;99966.49;2850278;81;21014;-87
2022/08/20 18:11:40;;;;;;;7.58;6.78;;;;;;;22.35;100.00;99970.45;2793277;83;21022;-86
2022/08/20 18:15:55;;;;;;;9.75;7.37;;;;;;;22.28;100.00;99968.28;2815714;83;21581;-86
2022/08/20 18:20:20;;;;;;;8.07;7.27;;;;;;;22.25;100.00;99967.36;2790717;81;21063;-87
2022/08/20 18:24:42;;;;;;;6.70;6.07;;;;;;;22.10;100.00;99957.57;2858209;81;21390;-86
2022/08/20 18:28:48;;;;;;;9.03;6.75;;;;;;;22.09;100.00;99966.74;2834380;81;21034;-85
2022/08/20 18:33:03;;;;;;;7.47;5.95;;;;;;;21.95;100.00;99968.63;2842002;81;21202;-86
2022/08/20 18:37:16;;;;;;;9.03;6.00;;;;;;;21.82;100.00;99972.69;2857137;81;21280;-86
2022/08/20 18:41:31;;;;;;;7.37;5.25;;;;;;;21.75;100.00;99959.14;2828022;81;21485;-86
2022/08/20 18:45:34;;;;;;;;;;;;;;;21.49;100.00;99954.50;2828551;81;22301;-86
2022/08/20 18:49:38;;;;;;;5.92;4.92;;;;;;;21.46;100.00;99956.27;2837072;81;20121;-86